ADDS METAR Data INFO
IDs: Format: Raw Decoded Include TAF

Data at: 0800 UTC 23 Jul 2018

KIDA 230753Z AUTO 15005KT 10SM CLR 20/08 A3023 RMK AO2 SLP186 T02000083
KIDA 230653Z AUTO 17007KT 10SM CLR 22/08 A3023 RMK AO2 SLP188 T02170078 403110111
KIDA 230553Z AUTO 18009KT 10SM CLR 23/08 A3023 RMK AO2 SLP188 T02280078 10306 20228 51008
KIDA 230453Z AUTO 17012KT 10SM CLR 24/07 A3023 RMK AO2 SLP187 T02440067
KIDA 230353Z AUTO 18008KT 10SM CLR 25/02 A3022 RMK AO2 SLP185 T02500017
KIDA 230253Z AUTO 19008KT 10SM CLR 26/02 A3020 RMK AO2 SLP180 T02610022 55001
KIDA 230153Z 19009KT 10SM CLR 28/03 A3020 RMK AO2 SLP178 T02830028
KIDA 230053Z 19012KT 10SM FEW120 30/00 A3020 RMK AO2 SLP182 T03000000
KIDA 222353Z 20013KT 10SM FEW120 31/01 A3021 RMK AO2 SLP181 T03060011 10311 20244 58008
KIDA 222253Z 20015KT 10SM FEW090 31/M01 A3022 RMK AO2 SLP185 T03061006
KIDA 222153Z 23013KT 10SM CLR 30/03 A3023 RMK AO2 SLP188 T03000028
KIDA 222053Z 21016KT 10SM SCT090 29/02 A3023 RMK AO2 SLP190 T02890022 56006
KIDA 221953Z 22011KT 10SM SCT100 27/06 A3024 RMK AO2 SLP193 T02720056
KIDA 221853Z 20013KT 10SM SCT120 26/05 A3025 RMK AO2 SLP196 T02560050
KIDA 221753Z 23011KT 10SM SCT120 24/07 A3025 RMK AO2 SLP198 T02440067 10244 20111 51006
KIDA 221653Z 22011KT 10SM CLR 23/06 A3025 RMK AO2 SLP193 T02330061
KIDA 221553Z 24009KT 10SM SCT120 21/08 A3024 RMK AO2 SLP196 T02110078
KIDA 221453Z 21010KT 10SM CLR 21/07 A3023 RMK AO2 SLP187 T02060072 51015
KIDA 221353Z 00000KT 10SM CLR 17/12 A3022 RMK AO2 SLP184 T01720117
KIDA 221253Z 00000KT 10SM CLR 13/11 A3020 RMK AO2 SLP180 T01330106
KIDA 221153Z AUTO 00000KT 10SM CLR 16/10 A3018 RMK AO2 SLP170 T01560100 10228 20139 53017
KIDA 221053Z AUTO 07005KT 10SM CLR 16/11 A3016 RMK AO2 SLP162 T01610106
KIDA 220953Z AUTO 23009KT 10SM CLR 16/10 A3014 RMK AO2 SLP156 T01610100
KIDA 220853Z AUTO 22011KT 10SM CLR 18/09 A3012 RMK AO2 SLP149 T01780094 53009
KIDA 220753Z AUTO 22008KT 10SM CLR 18/09 A3011 RMK AO2 SLP147 T01780094
KIDA 220653Z AUTO 22007KT 10SM CLR 19/09 A3011 RMK AO2 SLP148 T01940094 403330167
KIDA 220553Z AUTO 22010KT 10SM CLR 21/09 A3009 RMK AO2 SLP141 T02110094 10328 20200 51015
KIDA 220453Z AUTO 21009KT 10SM CLR 24/08 A3008 RMK AO2 SLP134 T02440083
KIDA 220353Z AUTO 20008KT 10SM CLR 23/09 A3006 RMK AO2 SLP128 T02330094
KIDA 220253Z AUTO 20007KT 10SM CLR 28/09 A3004 RMK AO2 SLP117 T02780094 55000
KIDA 220153Z 20012KT 10SM CLR 31/08 A3003 RMK AO2 SLP113 T03060083
KIDA 220053Z 21013KT 10SM FEW120 32/07 A3003 RMK AO2 SLP109 T03170067
KIDA 212353Z 21015KT 10SM FEW100 33/06 A3004 RMK AO2 SLP112 60000 T03280061 10333 20244 56016
KIDA 212253Z 20011G18KT 10SM SCT110 33/06 A3006 RMK AO2 SLP123 T03280061
KIDA 212153Z 20012KT 10SM FEW110 32/07 A3008 RMK AO2 SLP127 T03170067
KIDA 212053Z 19014KT 10SM SCT100 31/08 A3009 RMK AO2 SLP136 60000 T03060078 58009